createdAt,value
2022-11-09T00:01:49.757Z,1.80
2022-11-09T00:04:16.344Z,1.53
2022-11-09T00:06:42.907Z,1.70
2022-11-09T00:09:09.866Z,1.60
2022-11-09T00:11:37.989Z,1.27
2022-11-09T00:14:05.180Z,1.60
2022-11-09T00:16:31.897Z,1.77
2022-11-09T00:18:58.675Z,1.60
2022-11-09T00:21:25.623Z,1.50
2022-11-09T00:23:53.063Z,1.60
2022-11-09T00:26:20.818Z,1.63
2022-11-09T00:28:47.770Z,1.43
2022-11-09T00:31:21.661Z,1.50
2022-11-09T00:33:53.097Z,1.40
2022-11-09T00:36:20.618Z,1.97
2022-11-09T00:38:52.525Z,1.40
2022-11-09T00:41:19.595Z,1.50
2022-11-09T00:43:46.517Z,1.90
2022-11-09T00:46:13.380Z,1.50
2022-11-09T00:48:40.581Z,1.60
2022-11-09T00:51:07.454Z,1.30
2022-11-09T00:53:34.335Z,1.27
2022-11-09T00:56:03.185Z,1.47
2022-11-09T00:58:32.656Z,1.60
2022-11-09T01:01:05.036Z,1.77
2022-11-09T01:03:31.616Z,1.20
2022-11-09T01:06:01.007Z,1.63
2022-11-09T01:08:27.513Z,1.47
2022-11-09T01:10:54.054Z,1.63
2022-11-09T01:13:21.065Z,1.70
2022-11-09T01:15:51.300Z,1.60
2022-11-09T01:18:19.997Z,1.50
2022-11-09T01:20:48.809Z,1.50
2022-11-09T01:23:18.032Z,1.20
2022-11-09T01:25:45.636Z,1.60
2022-11-09T01:28:12.458Z,1.60
2022-11-09T01:30:41.581Z,1.63
2022-11-09T01:33:11.587Z,1.60
2022-11-09T01:35:39.720Z,1.40
2022-11-09T01:38:07.834Z,1.60
2022-11-09T01:40:37.518Z,1.47
2022-11-09T01:43:14.412Z,1.60
2022-11-09T01:45:43.016Z,1.30
2022-11-09T01:48:15.912Z,1.27
2022-11-09T01:50:49.067Z,1.40
2022-11-09T01:53:23.414Z,1.30
2022-11-09T01:55:54.932Z,1.60
2022-11-09T01:58:27.641Z,1.30
2022-11-09T02:00:58.193Z,1.40
2022-11-09T02:03:35.368Z,1.43
2022-11-09T02:06:06.059Z,1.60
2022-11-09T02:08:32.728Z,1.53
2022-11-09T02:11:07.911Z,1.60
2022-11-09T02:13:35.843Z,1.70
2022-11-09T02:16:03.268Z,1.30
2022-11-09T02:18:31.040Z,1.27
2022-11-09T02:20:58.341Z,1.43
2022-11-09T02:23:26.720Z,1.60
2022-11-09T02:25:58.312Z,1.20
2022-11-09T02:28:26.422Z,1.50
2022-11-09T02:30:55.662Z,1.40
2022-11-09T02:33:23.195Z,1.40
2022-11-09T02:35:50.055Z,1.60
2022-11-09T02:38:16.771Z,1.47
2022-11-09T02:40:48.125Z,1.60
2022-11-09T02:43:15.567Z,1.47
2022-11-09T02:45:42.324Z,1.50
2022-11-09T02:48:08.834Z,1.60
2022-11-09T02:50:37.126Z,1.47
2022-11-09T02:53:04.237Z,1.20
2022-11-09T02:55:31.260Z,1.47
2022-11-09T02:57:57.852Z,1.27
2022-11-09T03:00:24.467Z,1.43
2022-11-09T03:02:51.088Z,1.40
2022-11-09T03:05:17.745Z,1.40
2022-11-09T03:07:44.247Z,1.40
2022-11-09T03:10:10.777Z,1.80
2022-11-09T03:12:37.299Z,1.80
2022-11-09T03:15:07.431Z,1.43
2022-11-09T03:17:34.962Z,1.40
2022-11-09T03:20:01.542Z,2.00
2022-11-09T03:22:29.098Z,1.90
2022-11-09T03:24:56.112Z,1.63
2022-11-09T03:27:22.657Z,1.57
2022-11-09T03:29:49.348Z,1.60
2022-11-09T03:32:15.865Z,1.67
2022-11-09T03:34:42.426Z,1.57
2022-11-09T03:37:09.649Z,1.70
2022-11-09T03:39:36.194Z,1.53
2022-11-09T03:42:02.697Z,1.63
2022-11-09T03:44:29.713Z,1.77
2022-11-09T03:46:56.243Z,2.13
2022-11-09T03:49:23.893Z,1.40
2022-11-09T03:51:51.621Z,1.40
2022-11-09T03:54:18.182Z,1.50
2022-11-09T03:56:44.754Z,1.73
2022-11-09T03:59:11.386Z,1.80
2022-11-09T04:01:37.951Z,1.40
2022-11-09T04:04:04.649Z,1.53
2022-11-09T04:06:31.213Z,1.53
2022-11-09T04:08:57.791Z,1.97
2022-11-09T04:11:24.436Z,1.60
2022-11-09T04:13:51.006Z,1.80
2022-11-09T04:16:17.599Z,1.80
2022-11-09T04:18:44.127Z,1.80
2022-11-09T04:21:10.691Z,1.80
2022-11-09T04:23:37.171Z,1.57
2022-11-09T04:26:03.701Z,1.60
2022-11-09T04:28:30.257Z,2.20
2022-11-09T04:31:00.994Z,1.30
2022-11-09T04:33:27.936Z,1.70
2022-11-09T04:35:54.534Z,1.73
2022-11-09T04:38:21.262Z,1.80
2022-11-09T04:40:48.014Z,1.90
2022-11-09T04:43:16.113Z,1.60
2022-11-09T04:45:43.034Z,1.80
2022-11-09T04:48:11.049Z,1.80
2022-11-09T04:50:38.089Z,1.60
2022-11-09T04:53:13.037Z,2.07
2022-11-09T04:55:40.561Z,1.60
2022-11-09T04:58:07.699Z,1.87
2022-11-09T05:00:34.935Z,1.70
2022-11-09T05:03:06.638Z,1.83
2022-11-09T05:05:35.216Z,2.27
2022-11-09T05:08:02.083Z,2.07
2022-11-09T05:10:28.815Z,2.40
2022-11-09T05:13:07.729Z,2.20
2022-11-09T05:15:35.398Z,2.70
2022-11-09T05:18:02.901Z,2.67
2022-11-09T05:20:29.946Z,2.10
2022-11-09T05:23:17.526Z,2.43
2022-11-09T05:25:44.692Z,2.50
2022-11-09T05:28:11.697Z,2.70
2022-11-09T05:30:38.447Z,2.50
2022-11-09T05:33:05.226Z,1.60
2022-11-09T05:35:33.821Z,2.50
2022-11-09T05:38:42.613Z,2.10
2022-11-09T05:41:09.170Z,2.80
2022-11-09T05:43:35.713Z,3.20
2022-11-09T05:46:06.360Z,2.33
2022-11-09T05:48:33.170Z,2.13
2022-11-09T05:51:07.942Z,2.00
2022-11-09T05:53:34.723Z,1.90
2022-11-09T05:56:03.797Z,1.63
2022-11-09T05:58:30.844Z,2.20
2022-11-09T06:00:57.455Z,1.70
2022-11-09T06:03:23.968Z,1.83
2022-11-09T06:05:50.477Z,1.77
2022-11-09T06:08:17.168Z,1.80
2022-11-09T06:10:43.814Z,1.70
2022-11-09T06:13:10.966Z,1.90
2022-11-09T06:15:37.595Z,1.80
2022-11-09T06:18:04.348Z,2.17
2022-11-09T06:20:31.132Z,1.40
2022-11-09T06:23:03.164Z,1.70
2022-11-09T06:25:32.740Z,1.87
2022-11-09T06:27:59.654Z,2.10
2022-11-09T06:30:26.295Z,2.17
2022-11-09T06:32:58.346Z,1.87
2022-11-09T06:35:24.883Z,2.10
2022-11-09T06:37:56.604Z,2.50
2022-11-09T06:40:23.130Z,3.07
2022-11-09T06:42:49.731Z,2.80
2022-11-09T06:45:16.402Z,2.83
2022-11-09T06:47:42.918Z,2.47
2022-11-09T06:50:10.094Z,1.80
2022-11-09T06:52:37.037Z,2.13
2022-11-09T06:55:03.687Z,2.33
2022-11-09T06:57:30.728Z,2.27
2022-11-09T06:59:57.391Z,2.50
2022-11-09T07:02:23.858Z,2.47
2022-11-09T07:04:53.246Z,1.90
2022-11-09T07:07:22.375Z,2.27
2022-11-09T07:09:53.043Z,2.20
2022-11-09T07:12:20.051Z,2.07
2022-11-09T07:14:49.080Z,1.57
2022-11-09T07:17:15.612Z,1.93
2022-11-09T07:19:42.084Z,2.43
2022-11-09T07:22:08.646Z,2.07
2022-11-09T07:24:35.148Z,2.10
2022-11-09T07:27:02.005Z,2.57
2022-11-09T07:29:28.497Z,2.17
2022-11-09T07:31:55.339Z,2.60
2022-11-09T07:34:21.926Z,2.80
2022-11-09T07:36:48.489Z,2.40
2022-11-09T07:39:15.008Z,2.90
2022-11-09T07:41:41.520Z,2.80
2022-11-09T07:44:08.097Z,3.23
2022-11-09T07:46:35.610Z,5.70
2022-11-09T07:49:02.089Z,5.33
2022-11-09T07:51:29.287Z,4.50
2022-11-09T07:53:55.833Z,3.60
2022-11-09T07:56:22.351Z,3.50
2022-11-09T07:58:50.484Z,3.37
2022-11-09T08:01:17.007Z,3.40
2022-11-09T08:03:43.487Z,3.30
2022-11-09T08:06:14.295Z,2.87
2022-11-09T08:08:49.680Z,2.77
2022-11-09T08:11:16.200Z,3.00
2022-11-09T08:13:42.734Z,2.30
2022-11-09T08:16:10.131Z,2.27
2022-11-09T08:18:36.610Z,1.90
2022-11-09T08:21:04.592Z,2.70
2022-11-09T08:23:31.534Z,2.20
2022-11-09T08:26:03.003Z,1.93
2022-11-09T08:28:29.556Z,1.40
2022-11-09T08:31:01.574Z,1.57
2022-11-09T08:33:30.393Z,1.83
2022-11-09T08:35:57.691Z,1.70
2022-11-09T08:38:25.185Z,2.20
2022-11-09T08:40:57.638Z,2.60
2022-11-09T08:43:24.644Z,2.50
2022-11-09T08:45:51.215Z,2.37
2022-11-09T08:48:18.212Z,2.63
2022-11-09T08:50:45.029Z,2.60
2022-11-09T08:53:12.131Z,2.60
2022-11-09T08:55:38.772Z,3.03
2022-11-09T08:58:05.460Z,3.27
2022-11-09T09:00:32.040Z,2.80
2022-11-09T09:02:59.172Z,2.53
2022-11-09T09:05:26.771Z,2.10
2022-11-09T09:07:53.281Z,2.57
2022-11-09T09:10:20.073Z,2.70
2022-11-09T09:12:46.743Z,2.50
2022-11-09T09:15:13.307Z,2.30
2022-11-09T09:17:39.861Z,2.30
2022-11-09T09:20:06.813Z,2.93
2022-11-09T09:22:33.544Z,2.30
2022-11-09T09:25:00.100Z,2.20
2022-11-09T09:27:27.004Z,2.10
2022-11-09T09:29:53.521Z,2.00
2022-11-09T09:32:20.070Z,2.33
2022-11-09T09:34:46.604Z,2.00
2022-11-09T09:37:13.199Z,2.43
2022-11-09T09:39:39.868Z,2.23
2022-11-09T09:42:09.084Z,3.00
2022-11-09T09:44:43.189Z,2.20
2022-11-09T09:47:34.081Z,2.30
2022-11-09T09:50:12.691Z,1.77
2022-11-09T09:52:54.123Z,1.93
2022-11-09T09:55:37.785Z,1.90
2022-11-09T09:58:17.103Z,1.90
2022-11-09T10:00:44.186Z,1.47
2022-11-09T10:03:20.182Z,2.00
2022-11-09T10:06:01.778Z,1.93
2022-11-09T10:08:45.659Z,1.80
2022-11-09T10:11:34.463Z,1.80
2022-11-09T10:14:39.827Z,1.90
2022-11-09T10:17:32.015Z,2.63
2022-11-09T10:20:15.808Z,2.40
2022-11-09T10:23:11.387Z,2.50
2022-11-09T10:28:37.996Z,2.70
2022-11-09T10:31:20.655Z,3.10
2022-11-09T10:33:54.200Z,2.67
2022-11-09T10:36:33.096Z,2.60
2022-11-09T10:39:01.734Z,2.57
2022-11-09T10:41:39.701Z,2.57
2022-11-09T10:44:17.288Z,2.60
2022-11-09T10:47:05.254Z,3.77
2022-11-09T10:49:31.992Z,3.00
2022-11-09T10:51:58.521Z,2.20
2022-11-09T10:54:28.502Z,2.30
2022-11-09T10:57:16.870Z,2.63
2022-11-09T10:59:49.316Z,2.63
2022-11-09T11:02:39.084Z,2.60
2022-11-09T11:05:05.544Z,2.60
2022-11-09T11:07:34.542Z,2.97
2022-11-09T11:10:16.180Z,3.40
2022-11-09T11:12:43.943Z,3.20
2022-11-09T11:15:41.799Z,3.37
2022-11-09T11:18:26.328Z,2.50
2022-11-09T11:21:18.688Z,1.97
2022-11-09T11:24:08.909Z,2.13
2022-11-09T11:26:53.557Z,2.50
2022-11-09T11:29:56.667Z,2.60
2022-11-09T11:32:23.817Z,2.43
2022-11-09T11:35:05.747Z,2.10
2022-11-09T11:37:53.816Z,2.33
2022-11-09T11:40:33.494Z,2.20
2022-11-09T11:43:19.492Z,2.97
2022-11-09T11:46:48.187Z,3.17
2022-11-09T11:49:23.767Z,2.60
2022-11-09T11:51:57.038Z,2.67
2022-11-09T11:54:34.011Z,2.70
2022-11-09T11:57:15.070Z,2.17
2022-11-09T11:59:54.389Z,2.10
2022-11-09T12:02:40.420Z,3.07
2022-11-09T12:05:22.965Z,3.17
2022-11-09T12:08:38.395Z,2.97
2022-11-09T12:11:29.016Z,3.07
2022-11-09T12:14:23.336Z,2.87
2022-11-09T12:17:00.323Z,3.37
2022-11-09T12:19:56.359Z,2.30
2022-11-09T12:22:55.071Z,2.20
2022-11-09T12:25:43.387Z,2.03
2022-11-09T12:28:15.983Z,1.97
2022-11-09T12:30:50.588Z,2.23
2022-11-09T12:33:47.511Z,2.13
2022-11-09T12:36:21.543Z,2.17
2022-11-09T12:38:54.551Z,2.10
2022-11-09T12:41:24.555Z,2.60
2022-11-09T12:44:00.954Z,2.90
2022-11-09T12:46:34.153Z,1.57
2022-11-09T12:49:04.167Z,2.17
2022-11-09T12:51:32.747Z,1.70
2022-11-09T12:54:01.024Z,2.10
2022-11-09T12:56:36.838Z,1.63
2022-11-09T12:59:28.891Z,2.43
2022-11-09T13:01:58.274Z,1.70
2022-11-09T13:04:25.796Z,1.80
2022-11-09T13:07:07.844Z,1.80
2022-11-09T13:09:44.513Z,1.97
2022-11-09T13:12:20.309Z,2.07
2022-11-09T13:14:47.050Z,1.70
2022-11-09T13:17:29.160Z,2.20
2022-11-09T13:19:56.589Z,2.63
2022-11-09T13:22:23.220Z,2.77
2022-11-09T13:24:56.275Z,2.53
2022-11-09T13:27:41.454Z,2.60
2022-11-09T13:30:31.089Z,2.10
2022-11-09T13:33:06.703Z,2.30
2022-11-09T13:35:42.594Z,1.73
2022-11-09T13:38:17.176Z,2.00
2022-11-09T13:40:44.831Z,2.17
2022-11-09T13:43:11.512Z,1.73
2022-11-09T13:46:01.279Z,2.53
2022-11-09T13:48:40.332Z,3.23
2022-11-09T13:51:11.851Z,2.27
2022-11-09T13:53:38.488Z,1.97
2022-11-09T13:56:30.480Z,1.90
2022-11-09T13:59:03.011Z,2.07
2022-11-09T14:01:38.418Z,2.50
2022-11-09T14:04:05.374Z,1.83
2022-11-09T14:06:33.388Z,2.47
2022-11-09T14:09:01.260Z,1.70
2022-11-09T14:11:35.828Z,1.87
2022-11-09T14:14:26.501Z,1.60
2022-11-09T14:17:12.181Z,1.60
2022-11-09T14:19:51.420Z,1.80
2022-11-09T14:22:20.214Z,2.50
2022-11-09T14:24:47.342Z,2.20
2022-11-09T14:27:20.563Z,3.00
2022-11-09T14:29:55.243Z,2.73
2022-11-09T14:32:31.911Z,2.13
2022-11-09T14:35:20.213Z,2.80
2022-11-09T14:37:48.002Z,2.43
2022-11-09T14:40:23.122Z,2.47
2022-11-09T14:42:54.503Z,2.17
2022-11-09T14:45:21.897Z,2.20
2022-11-09T14:47:51.793Z,2.50
2022-11-09T14:50:25.363Z,2.53
2022-11-09T14:52:55.330Z,1.80
2022-11-09T14:55:24.029Z,1.90
2022-11-09T14:57:53.457Z,1.77
2022-11-09T15:00:31.537Z,2.40
2022-11-09T15:02:58.142Z,2.10
2022-11-09T15:05:43.450Z,2.07
2022-11-09T15:08:21.486Z,2.23
2022-11-09T15:10:53.467Z,1.73
2022-11-09T15:13:37.761Z,2.57
2022-11-09T15:16:06.052Z,2.43
2022-11-09T15:18:36.782Z,1.93
2022-11-09T15:21:20.500Z,1.83
2022-11-09T15:23:49.137Z,1.80
2022-11-09T15:26:34.813Z,1.83
2022-11-09T15:29:02.170Z,1.27
2022-11-09T15:31:29.103Z,1.80
2022-11-09T15:33:56.989Z,1.40
2022-11-09T15:36:26.447Z,1.47
2022-11-09T15:39:03.076Z,1.40
2022-11-09T15:41:30.576Z,1.43
2022-11-09T15:43:58.335Z,3.07
2022-11-09T15:46:40.294Z,4.33
2022-11-09T15:49:24.189Z,2.63
2022-11-09T15:51:51.447Z,2.27
2022-11-09T15:54:18.470Z,1.87
2022-11-09T15:56:45.705Z,2.10
2022-11-09T15:59:30.607Z,1.83
2022-11-09T16:01:57.136Z,2.07
2022-11-09T16:04:23.716Z,3.00
2022-11-09T16:06:50.300Z,4.63
2022-11-09T16:09:16.852Z,7.00
2022-11-09T16:11:43.414Z,5.40
2022-11-09T16:14:10.030Z,3.60
2022-11-09T16:16:36.651Z,5.37
2022-11-09T16:19:03.174Z,4.43
2022-11-09T16:21:30.013Z,4.60
2022-11-09T16:23:58.641Z,3.23
2022-11-09T16:26:25.846Z,2.60
2022-11-09T16:28:54.632Z,3.00
2022-11-09T16:31:41.135Z,3.17
2022-11-09T16:34:07.692Z,2.83
2022-11-09T16:36:34.278Z,4.17
2022-11-09T16:39:05.658Z,4.27
2022-11-09T16:41:32.662Z,4.60
2022-11-09T16:43:59.202Z,4.50
2022-11-09T16:46:28.844Z,3.30
2022-11-09T16:48:55.802Z,4.30
2022-11-09T16:51:22.323Z,3.27
2022-11-09T16:53:48.905Z,3.67
2022-11-09T16:56:15.523Z,4.53
2022-11-09T16:58:42.014Z,5.37
2022-11-09T17:01:12.386Z,5.17
2022-11-09T17:03:39.471Z,6.00
2022-11-09T17:06:11.027Z,5.30
2022-11-09T17:08:39.314Z,5.07
2022-11-09T17:11:14.915Z,5.37
2022-11-09T17:13:41.514Z,3.60
2022-11-09T17:16:11.046Z,4.23
2022-11-09T17:18:38.209Z,3.73
2022-11-09T17:21:14.402Z,3.73
2022-11-09T17:23:43.064Z,3.70
2022-11-09T17:26:09.708Z,3.40
2022-11-09T17:28:41.515Z,3.00
2022-11-09T17:31:17.995Z,4.47
2022-11-09T17:33:45.008Z,4.37
2022-11-09T17:36:14.014Z,5.13
2022-11-09T17:38:41.238Z,4.50
2022-11-09T17:42:08.315Z,3.57
2022-11-09T17:44:35.936Z,2.80
2022-11-09T17:47:02.932Z,3.30
2022-11-09T17:49:29.421Z,3.10
2022-11-09T17:51:56.044Z,3.63
2022-11-09T17:54:22.558Z,3.60
2022-11-09T17:56:49.184Z,3.77
2022-11-09T17:59:15.666Z,3.33
2022-11-09T18:01:42.387Z,2.47
2022-11-09T18:04:10.997Z,2.53
2022-11-09T18:06:38.033Z,2.30
2022-11-09T18:09:40.360Z,1.77
2022-11-09T18:11:51.599Z,2.03
2022-11-09T18:14:18.333Z,2.30
2022-11-09T18:16:45.331Z,1.80
2022-11-09T18:19:12.160Z,2.13
2022-11-09T18:21:38.690Z,2.03
2022-11-09T18:24:05.527Z,2.30
2022-11-09T18:26:33.011Z,2.13
2022-11-09T18:28:59.779Z,1.63
2022-11-09T18:31:26.422Z,3.47
2022-11-09T18:33:53.373Z,2.90
2022-11-09T18:36:21.721Z,3.13
2022-11-09T18:38:51.189Z,2.50
2022-11-09T18:41:20.492Z,4.13
2022-11-09T18:43:47.563Z,4.20
2022-11-09T18:46:16.084Z,4.70
2022-11-09T18:48:43.720Z,2.90
2022-11-09T18:51:11.520Z,2.53
2022-11-09T18:53:40.573Z,7.10
2022-11-09T18:56:10.777Z,4.60
2022-11-09T18:58:37.301Z,5.00
2022-11-09T19:01:06.153Z,4.67
2022-11-09T19:03:33.198Z,4.40
2022-11-09T19:06:04.691Z,4.53
2022-11-09T19:08:49.686Z,4.73
2022-11-09T19:11:16.286Z,3.90
2022-11-09T19:13:42.845Z,3.03
2022-11-09T19:16:15.265Z,2.90
2022-11-09T19:18:42.006Z,3.07
2022-11-09T19:21:28.533Z,2.57
2022-11-09T19:23:56.159Z,3.17
2022-11-09T19:26:22.829Z,2.63
2022-11-09T19:28:49.384Z,2.40
2022-11-09T19:31:18.159Z,2.90
2022-11-09T19:33:44.634Z,2.93
2022-11-09T19:38:59.102Z,2.40
2022-11-09T19:41:26.025Z,2.10
2022-11-09T19:43:58.753Z,2.50
2022-11-09T19:46:26.899Z,2.23
2022-11-09T19:48:53.407Z,2.10
2022-11-09T19:51:19.948Z,2.47
2022-11-09T19:53:54.544Z,2.80
2022-11-09T19:56:24.002Z,2.97
2022-11-09T19:58:52.284Z,3.33
2022-11-09T20:01:19.255Z,3.37
2022-11-09T20:03:54.244Z,2.90
2022-11-09T20:06:22.599Z,3.27
2022-11-09T20:08:49.552Z,2.60
2022-11-09T20:11:37.770Z,3.10
2022-11-09T20:14:06.042Z,2.97
2022-11-09T20:16:33.545Z,4.37
2022-11-09T20:19:01.180Z,4.73
2022-11-09T20:21:27.807Z,4.90
2022-11-09T20:23:54.508Z,4.30
2022-11-09T20:26:21.069Z,3.67
2022-11-09T20:28:47.581Z,3.53
2022-11-09T20:31:21.267Z,3.00
2022-11-09T20:33:48.687Z,2.57
2022-11-09T20:36:15.756Z,2.57
2022-11-09T20:38:42.431Z,2.17
2022-11-09T20:41:11.527Z,2.53
2022-11-09T20:43:38.872Z,2.37
2022-11-09T20:46:17.820Z,2.60
2022-11-09T20:48:54.596Z,2.50
2022-11-09T20:51:22.285Z,2.20
2022-11-09T20:53:50.287Z,2.30
2022-11-09T20:56:18.242Z,2.40
2022-11-09T20:58:45.316Z,2.87
2022-11-09T21:01:22.339Z,2.40
2022-11-09T21:03:50.905Z,3.13
2022-11-09T21:06:18.195Z,2.80
2022-11-09T21:08:55.921Z,2.40
2022-11-09T21:11:28.773Z,2.43
2022-11-09T21:13:55.786Z,2.83
2022-11-09T21:16:23.374Z,2.73
2022-11-09T21:18:49.996Z,2.50
2022-11-09T21:21:28.762Z,2.70
2022-11-09T21:24:17.450Z,2.90
2022-11-09T21:27:02.418Z,3.10
2022-11-09T21:29:47.368Z,2.53
2022-11-09T21:32:13.914Z,2.90
2022-11-09T21:34:40.434Z,4.00
2022-11-09T21:37:07.439Z,4.27
2022-11-09T21:39:34.500Z,5.37
2022-11-09T21:42:02.427Z,4.40
2022-11-09T21:44:33.090Z,3.20
2022-11-09T21:47:00.186Z,2.87
2022-11-09T21:49:26.762Z,2.47
2022-11-09T21:51:54.385Z,3.00
2022-11-09T21:54:21.669Z,3.00
2022-11-09T21:56:49.287Z,2.33
2022-11-09T21:59:16.021Z,2.97
2022-11-09T22:01:42.747Z,3.43
2022-11-09T22:04:09.967Z,3.03
2022-11-09T22:06:39.107Z,4.00
2022-11-09T22:09:07.428Z,2.47
2022-11-09T22:11:53.019Z,2.90
2022-11-09T22:14:38.814Z,2.53
2022-11-09T22:17:08.737Z,2.43
2022-11-09T22:19:55.623Z,2.80
2022-11-09T22:22:23.166Z,3.27
2022-11-09T22:24:49.816Z,2.73
2022-11-09T22:27:16.428Z,2.77
2022-11-09T22:29:43.187Z,2.33
2022-11-09T22:32:09.746Z,2.77
2022-11-09T22:34:36.270Z,2.80
2022-11-09T22:37:02.772Z,2.40
2022-11-09T22:39:29.315Z,2.60
2022-11-09T22:41:55.948Z,2.80
2022-11-09T22:44:22.446Z,3.07
2022-11-09T22:46:49.280Z,2.60
2022-11-09T22:49:17.308Z,2.90
2022-11-09T22:51:43.902Z,2.78
2022-11-09T22:54:10.440Z,2.97
2022-11-09T22:56:36.939Z,2.87
2022-11-09T22:59:03.477Z,2.60
2022-11-09T23:01:30.707Z,3.43
2022-11-09T23:03:57.491Z,2.73
2022-11-09T23:06:24.185Z,2.50
2022-11-09T23:08:51.290Z,2.80
2022-11-09T23:11:21.000Z,3.00
2022-11-09T23:13:55.418Z,3.20
2022-11-09T23:16:22.988Z,3.00
2022-11-09T23:18:55.551Z,3.20
2022-11-09T23:21:33.433Z,3.23
2022-11-09T23:24:05.126Z,3.63
2022-11-09T23:26:32.925Z,4.73
2022-11-09T23:29:00.158Z,3.73
2022-11-09T23:31:29.546Z,3.90
2022-11-09T23:33:57.551Z,3.70
2022-11-09T23:36:25.846Z,3.77
2022-11-09T23:38:52.760Z,3.60
2022-11-09T23:41:19.591Z,3.37
2022-11-09T23:43:49.227Z,3.43
2022-11-09T23:46:16.791Z,3.50
2022-11-09T23:48:43.429Z,3.93
2022-11-09T23:51:10.412Z,4.03
2022-11-09T23:53:37.987Z,3.63
2022-11-09T23:56:10.546Z,3.23
2022-11-09T23:58:37.883Z,2.90
